createdAt,value
2022-08-17T00:01:30.760Z,55.39
2022-08-17T00:04:19.399Z,55.20
2022-08-17T00:06:46.233Z,56.40
2022-08-17T00:09:19.036Z,57.78
2022-08-17T00:12:41.808Z,58.52
2022-08-17T00:14:35.221Z,60.00
2022-08-17T00:17:03.750Z,60.68
2022-08-17T00:19:32.458Z,60.73
2022-08-17T00:22:29.849Z,59.62
2022-08-17T00:24:47.169Z,59.32
2022-08-17T00:27:13.687Z,59.43
2022-08-17T00:29:40.511Z,60.72
2022-08-17T00:33:13.740Z,60.69
2022-08-17T00:34:53.693Z,59.32
2022-08-17T00:37:20.153Z,59.85
2022-08-17T00:39:46.665Z,59.55
2022-08-17T00:42:18.642Z,60.46
2022-08-17T00:44:46.081Z,60.65
2022-08-17T00:47:12.566Z,60.99
2022-08-17T00:49:39.118Z,60.63
2022-08-17T00:52:15.380Z,61.91
2022-08-17T00:54:44.791Z,61.49
2022-08-17T00:57:14.808Z,61.59
2022-08-17T00:59:47.163Z,61.73
2022-08-17T01:02:29.992Z,61.90
2022-08-17T01:05:01.057Z,62.66
2022-08-17T01:07:27.757Z,63.81
2022-08-17T01:09:54.801Z,63.39
2022-08-17T01:12:21.538Z,63.58
2022-08-17T01:14:48.576Z,62.74
2022-08-17T01:17:15.208Z,62.91
2022-08-17T01:19:42.676Z,62.86
2022-08-17T01:22:09.105Z,63.86
2022-08-17T01:24:39.718Z,63.68
2022-08-17T01:27:10.256Z,63.89
2022-08-17T01:29:41.109Z,64.31
2022-08-17T01:32:09.087Z,64.29
2022-08-17T01:34:42.421Z,63.62
2022-08-17T01:37:11.338Z,64.81
2022-08-17T01:39:50.088Z,65.04
2022-08-17T01:42:17.565Z,65.18
2022-08-17T01:44:44.388Z,65.53
2022-08-17T01:47:10.874Z,66.34
2022-08-17T01:49:37.395Z,64.98
2022-08-17T01:52:09.697Z,64.35
2022-08-17T01:54:39.728Z,64.33
2022-08-17T01:57:06.907Z,64.05
2022-08-17T01:59:33.906Z,63.23
2022-08-17T02:02:00.537Z,63.33
2022-08-17T02:04:27.220Z,63.36
2022-08-17T02:06:54.675Z,62.75
2022-08-17T02:09:26.339Z,61.87
2022-08-17T02:11:58.415Z,63.13
2022-08-17T02:14:25.800Z,64.98
2022-08-17T02:16:52.906Z,64.56
2022-08-17T02:19:20.399Z,64.59
2022-08-17T02:21:49.157Z,65.35
2022-08-17T02:24:59.844Z,65.31
2022-08-17T02:27:15.453Z,65.54
2022-08-17T02:29:41.966Z,64.91
2022-08-17T02:32:28.216Z,64.45
2022-08-17T02:34:56.711Z,64.10
2022-08-17T02:37:23.508Z,64.48
2022-08-17T02:39:49.973Z,65.69
2022-08-17T02:42:16.526Z,67.07
2022-08-17T02:44:43.543Z,69.65
2022-08-17T02:47:11.108Z,71.30
2022-08-17T02:49:38.184Z,73.14
2022-08-17T02:52:06.630Z,75.47
2022-08-17T02:54:41.566Z,76.86
2022-08-17T02:57:09.878Z,76.16
2022-08-17T02:59:37.149Z,76.78
2022-08-17T03:02:06.171Z,74.98
2022-08-17T03:04:35.193Z,73.85
2022-08-17T03:07:02.404Z,75.09
2022-08-17T03:09:28.897Z,74.08
2022-08-17T03:11:56.159Z,71.92
2022-08-17T03:14:26.269Z,71.71
2022-08-17T03:16:52.902Z,71.26
2022-08-17T03:19:19.329Z,72.03
2022-08-17T03:21:45.782Z,73.71
2022-08-17T03:24:12.602Z,73.84
2022-08-17T03:26:39.134Z,74.48
2022-08-17T03:29:05.623Z,75.29
2022-08-17T03:31:32.386Z,76.64
2022-08-17T03:34:00.995Z,77.73
2022-08-17T03:36:27.483Z,79.91
2022-08-17T03:38:54.054Z,78.58
2022-08-17T03:41:21.358Z,77.60
2022-08-17T03:43:47.912Z,78.37
2022-08-17T03:46:35.244Z,79.04
2022-08-17T03:49:26.600Z,79.17
2022-08-17T03:52:13.058Z,79.43
2022-08-17T03:54:59.351Z,78.90
2022-08-17T03:57:26.289Z,78.63
2022-08-17T03:59:53.917Z,78.74
2022-08-17T04:02:26.884Z,78.83
2022-08-17T04:04:54.139Z,79.99
2022-08-17T04:07:23.308Z,79.50
2022-08-17T04:09:50.173Z,80.02
2022-08-17T04:12:18.737Z,79.84
2022-08-17T04:14:53.169Z,80.66
2022-08-17T04:17:23.415Z,79.61
2022-08-17T04:19:49.979Z,79.26
2022-08-17T04:22:33.039Z,78.78
2022-08-17T04:25:16.144Z,79.74
2022-08-17T04:27:42.614Z,80.29
2022-08-17T04:30:09.907Z,79.91
2022-08-17T04:33:05.087Z,82.16
2022-08-17T04:35:41.127Z,83.69
2022-08-17T04:38:10.246Z,83.63
2022-08-17T04:40:55.803Z,83.32
2022-08-17T04:43:24.117Z,83.62
2022-08-17T04:45:55.296Z,83.94
2022-08-17T04:48:29.782Z,84.07
2022-08-17T04:51:06.431Z,82.56
2022-08-17T04:53:32.977Z,81.75
2022-08-17T04:55:59.458Z,80.36
2022-08-17T04:58:26.137Z,80.51
2022-08-17T05:00:53.248Z,80.77
2022-08-17T05:03:19.839Z,79.71
2022-08-17T05:05:49.581Z,78.88
2022-08-17T05:08:18.836Z,79.96
2022-08-17T05:10:46.856Z,79.58
2022-08-17T05:13:17.904Z,80.95
2022-08-17T05:15:47.654Z,81.24
2022-08-17T05:18:15.099Z,80.88
2022-08-17T05:20:41.692Z,80.81
2022-08-17T05:23:11.571Z,80.94
2022-08-17T05:25:47.580Z,79.99
2022-08-17T05:28:16.128Z,79.89
2022-08-17T05:30:43.600Z,78.98
2022-08-17T05:33:13.408Z,78.77
2022-08-17T05:35:43.891Z,79.13
2022-08-17T05:38:10.906Z,78.92
2022-08-17T05:40:38.304Z,78.19
2022-08-17T05:43:14.534Z,77.36
2022-08-17T05:46:00.242Z,76.86
2022-08-17T05:48:39.086Z,75.55
2022-08-17T05:51:32.929Z,75.22
2022-08-17T05:54:17.764Z,74.27
2022-08-17T05:57:03.835Z,72.23
2022-08-17T05:59:43.495Z,73.37
2022-08-17T06:02:20.831Z,72.67
2022-08-17T06:04:59.425Z,72.87
2022-08-17T06:07:41.498Z,72.62
2022-08-17T06:10:35.371Z,70.88
2022-08-17T06:13:15.596Z,69.91
2022-08-17T06:15:57.063Z,69.07
2022-08-17T06:18:28.607Z,69.55
2022-08-17T06:21:00.368Z,66.47
2022-08-17T06:23:31.122Z,65.37
2022-08-17T06:26:03.751Z,64.56
2022-08-17T06:28:41.265Z,62.79
2022-08-17T06:31:29.245Z,61.02
2022-08-17T06:33:57.913Z,61.96
2022-08-17T06:36:48.218Z,62.04
2022-08-17T06:40:02.559Z,61.87
2022-08-17T06:43:05.545Z,61.12
2022-08-17T06:45:43.397Z,60.01
2022-08-17T06:48:15.423Z,59.52
2022-08-17T06:50:59.891Z,60.54
2022-08-17T06:53:35.490Z,60.62
2022-08-17T06:56:08.839Z,59.67
2022-08-17T06:58:40.144Z,59.92
2022-08-17T07:01:18.243Z,60.56
2022-08-17T07:03:54.520Z,59.70
2022-08-17T07:06:24.071Z,59.96
2022-08-17T07:09:15.271Z,55.18
2022-08-17T07:12:01.946Z,52.21
2022-08-17T07:14:37.717Z,52.17
2022-08-17T07:17:09.426Z,53.16
2022-08-17T07:19:44.044Z,53.25
2022-08-17T07:22:57.874Z,54.60
2022-08-17T07:25:27.507Z,54.29
2022-08-17T07:27:59.669Z,53.16
2022-08-17T07:30:29.990Z,51.71
2022-08-17T07:33:27.067Z,52.17
2022-08-17T07:35:54.012Z,51.46
2022-08-17T07:38:28.246Z,47.81
2022-08-17T07:40:58.007Z,46.00
2022-08-17T07:43:46.483Z,44.81
2022-08-17T07:46:40.931Z,45.15
2022-08-17T07:49:10.224Z,44.06
2022-08-17T07:51:44.179Z,44.94
2022-08-17T07:54:20.306Z,46.25
2022-08-17T07:57:00.786Z,47.56
2022-08-17T07:59:43.419Z,46.34
2022-08-17T08:02:25.770Z,44.84
2022-08-17T08:05:12.879Z,44.93
2022-08-17T08:07:48.144Z,44.34
2022-08-17T08:10:36.002Z,45.63
2022-08-17T08:13:14.049Z,45.30
2022-08-17T08:15:53.691Z,45.20
2022-08-17T08:18:55.529Z,43.96
2022-08-17T08:21:44.870Z,43.52
2022-08-17T08:24:30.913Z,44.54
2022-08-17T08:27:30.050Z,43.09
2022-08-17T08:30:14.389Z,41.59
2022-08-17T08:33:17.180Z,42.58
2022-08-17T08:35:55.065Z,42.70
2022-08-17T08:38:53.517Z,43.64
2022-08-17T08:41:44.905Z,46.12
2022-08-17T08:45:00.883Z,47.87
2022-08-17T08:47:53.953Z,49.64
2022-08-17T08:50:42.689Z,50.54
2022-08-17T08:53:11.939Z,52.56
2022-08-17T08:55:51.838Z,53.89
2022-08-17T08:58:32.022Z,55.48
2022-08-17T09:01:18.340Z,57.11
2022-08-17T09:04:21.444Z,61.82
2022-08-17T09:07:18.938Z,66.34
2022-08-17T09:10:02.962Z,69.73
2022-08-17T09:13:25.074Z,74.29
2022-08-17T09:15:59.235Z,70.70
2022-08-17T09:18:59.867Z,71.67
2022-08-17T09:21:48.392Z,72.74
2022-08-17T09:24:41.797Z,72.87
2022-08-17T09:27:14.272Z,65.39
2022-08-17T09:29:49.139Z,56.82
2022-08-17T09:32:27.397Z,53.89
2022-08-17T09:35:00.202Z,54.77
2022-08-17T09:37:53.378Z,56.02
2022-08-17T09:40:19.772Z,60.34
2022-08-17T09:43:14.173Z,63.54
2022-08-17T09:45:57.220Z,63.42
2022-08-17T09:48:50.387Z,63.92
2022-08-17T09:51:34.867Z,62.01
2022-08-17T09:54:35.008Z,61.85
2022-08-17T09:57:27.924Z,61.63
2022-08-17T10:00:13.305Z,57.16
2022-08-17T10:03:05.357Z,52.78
2022-08-17T10:05:47.052Z,46.67
2022-08-17T10:08:47.939Z,44.95
2022-08-17T10:11:20.242Z,44.65
2022-08-17T10:14:02.267Z,45.42
2022-08-17T10:17:01.810Z,45.85
2022-08-17T10:19:34.731Z,43.94
2022-08-17T10:22:41.399Z,39.48
2022-08-17T10:25:42.851Z,40.86
2022-08-17T10:28:25.889Z,41.61
2022-08-17T10:31:17.021Z,42.87
2022-08-17T10:34:25.180Z,37.65
2022-08-17T10:37:09.020Z,37.57
2022-08-17T10:39:53.177Z,39.26
2022-08-17T10:42:32.539Z,36.04
2022-08-17T10:45:06.848Z,38.05
2022-08-17T10:48:04.785Z,36.27
2022-08-17T10:50:59.198Z,34.87
2022-08-17T10:53:31.755Z,34.37
2022-08-17T10:56:18.713Z,38.40
2022-08-17T10:58:50.714Z,35.82
2022-08-17T11:01:18.156Z,35.37
2022-08-17T11:03:54.846Z,33.68
2022-08-17T11:06:32.076Z,32.97
2022-08-17T11:09:15.418Z,35.86
2022-08-17T11:11:51.831Z,36.29
2022-08-17T11:14:39.950Z,36.11
2022-08-17T11:17:25.608Z,34.10
2022-08-17T11:20:05.930Z,36.32
2022-08-17T11:22:57.849Z,32.71
2022-08-17T11:25:36.075Z,31.78
2022-08-17T11:28:13.703Z,30.79
2022-08-17T11:30:47.029Z,28.12
2022-08-17T11:33:30.395Z,26.32
2022-08-17T11:36:31.682Z,28.21
2022-08-17T11:39:25.623Z,29.76
2022-08-17T11:42:25.433Z,30.48
2022-08-17T11:45:03.279Z,33.30
2022-08-17T11:48:26.546Z,33.90
2022-08-17T11:51:25.417Z,33.97
2022-08-17T11:54:14.699Z,34.36
2022-08-17T11:56:51.785Z,34.22
2022-08-17T11:59:32.668Z,33.58
2022-08-17T12:02:01.897Z,33.63
2022-08-17T12:04:29.925Z,34.61
2022-08-17T12:07:10.170Z,32.50
2022-08-17T12:09:43.946Z,32.89
2022-08-17T12:12:14.677Z,31.38
2022-08-17T12:15:11.337Z,30.40
2022-08-17T12:17:41.207Z,29.08
2022-08-17T12:20:32.036Z,29.03
2022-08-17T12:23:07.064Z,31.17
2022-08-17T12:25:44.401Z,28.53
2022-08-17T12:28:43.968Z,28.73
2022-08-17T12:31:21.621Z,28.98
2022-08-17T12:33:50.007Z,28.60
2022-08-17T12:36:21.890Z,28.16
2022-08-17T12:39:14.419Z,27.98
2022-08-17T12:41:45.121Z,27.58
2022-08-17T12:44:12.172Z,28.39
2022-08-17T12:47:21.908Z,28.32
2022-08-17T12:49:51.735Z,27.61
2022-08-17T12:52:27.118Z,28.49
2022-08-17T12:54:59.397Z,29.39
2022-08-17T12:57:32.713Z,30.38
2022-08-17T13:00:26.815Z,28.25
2022-08-17T13:03:06.031Z,28.52
2022-08-17T13:05:38.818Z,27.86
2022-08-17T13:08:32.321Z,27.65
2022-08-17T13:11:03.593Z,28.36
2022-08-17T13:13:33.188Z,27.36
2022-08-17T13:16:01.439Z,26.46
2022-08-17T13:18:39.072Z,26.67
2022-08-17T13:21:28.110Z,27.60
2022-08-17T13:24:10.811Z,26.58
2022-08-17T13:26:44.271Z,25.82
2022-08-17T13:29:35.026Z,27.76
2022-08-17T13:32:05.097Z,26.79
2022-08-17T13:35:15.226Z,27.35
2022-08-17T13:37:41.005Z,27.59
2022-08-17T13:40:09.271Z,28.28
2022-08-17T13:42:55.462Z,29.92
2022-08-17T13:45:35.175Z,30.49
2022-08-17T13:48:14.468Z,30.92
2022-08-17T13:50:54.689Z,33.28
2022-08-17T13:53:51.615Z,33.92
2022-08-17T13:56:33.436Z,34.75
2022-08-17T13:59:11.236Z,35.39
2022-08-17T14:01:40.427Z,35.32
2022-08-17T14:04:13.069Z,35.85
2022-08-17T14:07:13.373Z,37.35
2022-08-17T14:09:55.229Z,38.19
2022-08-17T14:12:27.427Z,38.80
2022-08-17T14:14:56.303Z,39.19
2022-08-17T14:17:24.570Z,40.34
2022-08-17T14:19:51.554Z,41.54
2022-08-17T14:22:26.937Z,41.90
2022-08-17T14:24:53.815Z,42.00
2022-08-17T14:27:21.748Z,43.18
2022-08-17T14:29:48.971Z,41.99
2022-08-17T14:32:28.435Z,44.65
2022-08-17T14:34:57.753Z,50.14
2022-08-17T14:37:27.844Z,54.34
2022-08-17T14:39:56.858Z,62.63
2022-08-17T14:42:26.338Z,71.63
2022-08-17T14:44:54.299Z,75.08
2022-08-17T14:47:21.453Z,76.89
2022-08-17T14:49:48.844Z,78.89
2022-08-17T14:52:21.608Z,78.99
2022-08-17T14:54:51.304Z,76.47
2022-08-17T14:57:33.499Z,74.20
2022-08-17T15:00:01.951Z,75.47
2022-08-17T15:02:30.675Z,74.93
2022-08-17T15:05:06.286Z,73.05
2022-08-17T15:07:32.811Z,74.54
2022-08-17T15:10:01.423Z,79.21
2022-08-17T15:12:33.190Z,71.78
2022-08-17T15:15:01.095Z,72.99
2022-08-17T15:17:44.552Z,70.26
2022-08-17T15:20:20.767Z,69.12
2022-08-17T15:22:58.878Z,70.20
2022-08-17T15:25:28.187Z,70.93
2022-08-17T15:27:55.844Z,71.44
2022-08-17T15:30:25.735Z,68.08
2022-08-17T15:32:55.289Z,66.53
2022-08-17T15:35:29.414Z,65.25
2022-08-17T15:38:06.111Z,65.40
2022-08-17T15:40:39.009Z,67.10
2022-08-17T15:43:11.989Z,69.89
2022-08-17T15:45:38.381Z,70.01
2022-08-17T15:48:05.113Z,70.99
2022-08-17T15:50:31.618Z,69.32
2022-08-17T15:53:00.108Z,72.32
2022-08-17T15:55:28.697Z,75.40
2022-08-17T15:57:55.238Z,74.13
2022-08-17T16:00:24.031Z,74.17
2022-08-17T16:03:44.224Z,74.05
2022-08-17T16:05:37.391Z,73.10
2022-08-17T16:08:07.034Z,72.34
2022-08-17T16:10:35.257Z,72.54
2022-08-17T16:13:03.863Z,74.03
2022-08-17T16:15:33.654Z,70.27
2022-08-17T16:18:00.185Z,72.47
2022-08-17T16:20:27.163Z,73.82
2022-08-17T16:22:54.427Z,74.38
2022-08-17T16:25:47.153Z,72.62
2022-08-17T16:28:16.187Z,73.21
2022-08-17T16:30:43.208Z,74.65
2022-08-17T16:33:15.047Z,75.25
2022-08-17T16:35:42.093Z,75.16
2022-08-17T16:38:09.494Z,76.03
2022-08-17T16:40:37.469Z,76.63
2022-08-17T16:43:10.321Z,77.80
2022-08-17T16:45:40.319Z,77.86
2022-08-17T16:48:08.436Z,78.61
2022-08-17T16:50:36.528Z,77.02
2022-08-17T16:53:10.670Z,72.48
2022-08-17T16:55:38.297Z,72.17
2022-08-17T16:58:06.352Z,71.41
2022-08-17T17:00:33.770Z,72.64
2022-08-17T17:03:28.042Z,73.67
2022-08-17T17:05:59.275Z,71.91
2022-08-17T17:08:44.578Z,72.79
2022-08-17T17:11:24.947Z,72.37
2022-08-17T17:13:59.638Z,73.37
2022-08-17T17:16:32.601Z,75.35
2022-08-17T17:19:14.892Z,74.10
2022-08-17T17:21:51.752Z,74.86
2022-08-17T17:24:36.850Z,74.78
2022-08-17T17:27:23.366Z,74.48
2022-08-17T17:30:09.441Z,76.98
2022-08-17T17:32:48.044Z,77.68
2022-08-17T17:35:25.549Z,78.42
2022-08-17T17:37:57.238Z,76.35
2022-08-17T17:40:32.066Z,77.75
2022-08-17T17:43:20.473Z,78.15
2022-08-17T17:45:53.673Z,76.62
2022-08-17T17:48:20.553Z,73.57
2022-08-17T17:51:35.158Z,73.99
2022-08-17T17:54:29.427Z,74.19
2022-08-17T17:57:01.885Z,75.94
2022-08-17T17:59:51.281Z,77.83
2022-08-17T18:02:47.342Z,78.70
2022-08-17T18:05:37.107Z,78.76
2022-08-17T18:08:32.250Z,75.52
2022-08-17T18:11:34.904Z,76.16
2022-08-17T18:14:15.010Z,82.62
2022-08-17T18:16:43.722Z,84.84
2022-08-17T18:19:19.121Z,85.52
2022-08-17T18:21:50.101Z,85.27
2022-08-17T18:24:33.603Z,85.63
2022-08-17T18:27:02.513Z,83.87
2022-08-17T18:29:44.169Z,86.24
2022-08-17T18:32:23.283Z,84.56
2022-08-17T18:34:55.050Z,86.87
2022-08-17T18:37:54.180Z,86.65
2022-08-17T18:40:20.683Z,87.71
2022-08-17T18:42:59.001Z,88.31
2022-08-17T18:45:43.913Z,86.99
2022-08-17T18:48:49.858Z,87.46
2022-08-17T18:51:40.996Z,87.57
2022-08-17T18:54:22.168Z,88.36
2022-08-17T18:57:07.823Z,88.23
2022-08-17T18:59:42.007Z,88.39
2022-08-17T19:02:21.603Z,89.66
2022-08-17T19:05:17.435Z,92.56
2022-08-17T19:07:46.886Z,91.38
2022-08-17T19:10:22.276Z,91.06
2022-08-17T19:13:01.119Z,89.38
2022-08-17T19:15:34.515Z,89.70
2022-08-17T19:18:13.315Z,88.87
2022-08-17T19:20:47.030Z,89.63
2022-08-17T19:23:30.888Z,89.33
2022-08-17T19:25:59.353Z,90.30
2022-08-17T19:28:58.054Z,88.09
2022-08-17T19:31:27.921Z,90.02
2022-08-17T19:33:56.372Z,92.30
2022-08-17T19:36:26.480Z,91.71
2022-08-17T19:39:09.275Z,88.39
2022-08-17T19:41:53.826Z,88.55
2022-08-17T19:44:32.623Z,87.33
2022-08-17T19:47:01.819Z,86.14
2022-08-17T19:49:48.412Z,86.84
2022-08-17T19:52:26.943Z,88.81
2022-08-17T19:55:08.574Z,90.66
2022-08-17T19:58:06.832Z,90.38
2022-08-17T20:00:41.846Z,89.22
2022-08-17T20:03:16.574Z,89.41
2022-08-17T20:06:14.811Z,89.58
2022-08-17T20:08:47.366Z,89.71
2022-08-17T20:11:48.762Z,88.88
2022-08-17T20:14:20.326Z,88.23
2022-08-17T20:16:46.962Z,88.54
2022-08-17T20:19:31.569Z,89.82
2022-08-17T20:22:23.271Z,89.81
2022-08-17T20:25:03.647Z,89.69
2022-08-17T20:27:53.218Z,88.37
2022-08-17T20:30:37.580Z,88.46
2022-08-17T20:33:08.247Z,87.51
2022-08-17T20:35:39.786Z,86.73
2022-08-17T20:38:12.888Z,87.10
2022-08-17T20:40:54.620Z,86.03
2022-08-17T20:43:34.741Z,85.01
2022-08-17T20:46:19.593Z,86.26
2022-08-17T20:48:52.034Z,85.80
2022-08-17T20:51:27.126Z,86.73
2022-08-17T20:53:53.592Z,88.07
2022-08-17T20:56:44.974Z,90.23
2022-08-17T20:59:20.580Z,90.80
2022-08-17T21:02:08.878Z,91.79
2022-08-17T21:04:44.631Z,91.05
2022-08-17T21:07:48.576Z,90.57
2022-08-17T21:10:17.990Z,92.30
2022-08-17T21:12:48.314Z,92.78
2022-08-17T21:15:37.765Z,92.73
2022-08-17T21:18:16.453Z,91.29
2022-08-17T21:21:00.453Z,92.78
2022-08-17T21:23:55.427Z,91.53
2022-08-17T21:26:50.538Z,90.81
2022-08-17T21:29:32.443Z,90.33
2022-08-17T21:32:03.338Z,90.15
2022-08-17T21:34:38.388Z,88.89
2022-08-17T21:37:45.199Z,89.91
2022-08-17T21:40:18.212Z,90.52
2022-08-17T21:42:53.835Z,90.58
2022-08-17T21:45:27.198Z,90.21
2022-08-17T21:48:27.416Z,91.85
2022-08-17T21:51:01.678Z,92.27
2022-08-17T21:53:38.852Z,92.34
2022-08-17T21:56:06.933Z,94.15
2022-08-17T21:58:40.115Z,94.60
2022-08-17T22:01:11.206Z,93.97
2022-08-17T22:03:38.622Z,93.18
2022-08-17T22:06:34.277Z,91.85
2022-08-17T22:09:41.436Z,92.43
2022-08-17T22:12:11.350Z,92.40
2022-08-17T22:14:52.533Z,94.18
2022-08-17T22:17:35.455Z,93.31
2022-08-17T22:20:11.474Z,93.80
2022-08-17T22:23:20.062Z,94.73
2022-08-17T22:26:09.677Z,95.26
2022-08-17T22:28:46.297Z,97.86
2022-08-17T22:31:34.657Z,99.24
2022-08-17T22:34:04.300Z,99.37
2022-08-17T22:36:30.907Z,100.00
2022-08-17T22:39:09.199Z,100.00
2022-08-17T22:41:50.675Z,100.00
2022-08-17T22:44:23.204Z,100.00
2022-08-17T22:46:52.433Z,100.00
2022-08-17T22:49:29.184Z,100.00
2022-08-17T22:52:01.648Z,99.74
2022-08-17T22:54:47.742Z,100.00
2022-08-17T22:57:34.092Z,99.69
2022-08-17T23:00:01.413Z,100.00
2022-08-17T23:02:34.267Z,99.62
2022-08-17T23:05:10.174Z,98.71
2022-08-17T23:07:36.910Z,96.63
2022-08-17T23:10:06.456Z,96.42
2022-08-17T23:12:38.867Z,96.62
2022-08-17T23:15:17.951Z,95.93
2022-08-17T23:17:45.502Z,94.99
2022-08-17T23:20:15.111Z,96.25
2022-08-17T23:22:51.302Z,95.91
2022-08-17T23:25:28.323Z,95.00
2022-08-17T23:27:57.389Z,94.72
2022-08-17T23:30:25.615Z,94.59
2022-08-17T23:32:54.309Z,95.56
2022-08-17T23:35:40.256Z,95.22
2022-08-17T23:38:12.129Z,95.12
2022-08-17T23:40:40.122Z,96.42
2022-08-17T23:43:23.512Z,95.69
2022-08-17T23:45:53.096Z,94.66
2022-08-17T23:48:28.490Z,96.32
2022-08-17T23:51:04.062Z,95.84
2022-08-17T23:53:34.590Z,94.61
2022-08-17T23:56:04.592Z,93.60
2022-08-17T23:58:38.824Z,92.97
